EGGW - Luton Airport
Distance from station: E 5mi, 14km
Updated: 02/20/2018 7:20am
Light rain, Thunderstorm
Light rain, Thunderstorm
 Wind from N
Wind: N 18 mph , 30 km/h
Temperature: 45°F , 7°C
Wind Chill: 37°F , 3°C
Dew Point: 37°F , 3°C
Humidity: 76%
Barometer: 30.12 inHg , 1020 hPa
Summary: Light Rain
Clouds: Thunderstorm
Visibility: 6 miles , 10 km
Cloud details: Mostly Cloudy 3300 ft
Overcast 4500 ft
2018/02/20 15:20 EGGW 201520Z AUTO 35016KT 9999 -RA BKN033/// OVC045/// //////TCU 07/03 Q1020